sensor_id;sensor_type;location;lat;lon;timestamp;pressure;altitude;pressure_sealevel;temperature;humidity
23164;BME280;31429;42.674;23.350;2023-08-12T00:04:14;95330.38;;;17.97;100.00
23164;BME280;31429;42.674;23.350;2023-08-12T00:05:16;95320.53;;;17.88;100.00
23164;BME280;31429;42.674;23.350;2023-08-12T00:06:26;95330.44;;;17.82;100.00
23164;BME280;31429;42.674;23.350;2023-08-12T00:07:27;95323.75;;;17.77;100.00
23164;BME280;31429;42.674;23.350;2023-08-12T00:08:30;95335.88;;;17.61;100.00
23164;BME280;31429;42.674;23.350;2023-08-12T00:09:37;95320.44;;;17.60;100.00
23164;BME280;31429;42.674;23.350;2023-08-12T00:10:37;95326.72;;;17.56;100.00
23164;BME280;31429;42.674;23.350;2023-08-12T00:11:43;95325.59;;;17.60;100.00
23164;BME280;31429;42.674;23.350;2023-08-12T00:12:50;95331.22;;;17.68;100.00
23164;BME280;31429;42.674;23.350;2023-08-12T00:20:55;95322.75;;;17.49;100.00
23164;BME280;31429;42.674;23.350;2023-08-12T00:21:58;95326.34;;;17.46;100.00
23164;BME280;31429;42.674;23.350;2023-08-12T00:23:04;95322.00;;;17.47;100.00
23164;BME280;31429;42.674;23.350;2023-08-12T00:25:20;95326.22;;;17.34;100.00
23164;BME280;31429;42.674;23.350;2023-08-12T00:30:01;95324.25;;;17.37;100.00
23164;BME280;31429;42.674;23.350;2023-08-12T00:31:04;95322.38;;;17.25;100.00
23164;BME280;31429;42.674;23.350;2023-08-12T00:32:05;95316.78;;;17.33;100.00
23164;BME280;31429;42.674;23.350;2023-08-12T00:33:05;95319.53;;;17.30;100.00
23164;BME280;31429;42.674;23.350;2023-08-12T00:38:50;95321.19;;;17.46;100.00
23164;BME280;31429;42.674;23.350;2023-08-12T00:39:53;95315.94;;;17.48;100.00
23164;BME280;31429;42.674;23.350;2023-08-12T00:40:56;95318.28;;;17.68;100.00
23164;BME280;31429;42.674;23.350;2023-08-12T00:42:01;95312.09;;;17.70;100.00
23164;BME280;31429;42.674;23.350;2023-08-12T00:43:02;95307.69;;;17.57;100.00
23164;BME280;31429;42.674;23.350;2023-08-12T00:44:06;95320.81;;;17.54;100.00
23164;BME280;31429;42.674;23.350;2023-08-12T00:45:12;95312.25;;;17.52;100.00
23164;BME280;31429;42.674;23.350;2023-08-12T00:46:21;95312.25;;;17.52;100.00
23164;BME280;31429;42.674;23.350;2023-08-12T00:47:28;95322.00;;;17.47;100.00
23164;BME280;31429;42.674;23.350;2023-08-12T00:48:31;95312.94;;;17.55;100.00
23164;BME280;31429;42.674;23.350;2023-08-12T00:49:35;95321.53;;;17.56;100.00
23164;BME280;31429;42.674;23.350;2023-08-12T00:50:49;95315.94;;;17.48;100.00
23164;BME280;31429;42.674;23.350;2023-08-12T00:51:55;95315.94;;;17.48;100.00
23164;BME280;31429;42.674;23.350;2023-08-12T00:52:59;95319.44;;;17.47;100.00
23164;BME280;31429;42.674;23.350;2023-08-12T00:54:13;95316.19;;;17.43;100.00
23164;BME280;31429;42.674;23.350;2023-08-12T00:55:17;95317.28;;;17.55;100.00
23164;BME280;31429;42.674;23.350;2023-08-12T00:56:21;95314.69;;;17.55;100.00
23164;BME280;31429;42.674;23.350;2023-08-12T00:57:25;95317.28;;;17.55;100.00
23164;BME280;31429;42.674;23.350;2023-08-12T00:58:26;95320.94;;;17.51;100.00
23164;BME280;31429;42.674;23.350;2023-08-12T00:59:27;95316.94;;;17.61;100.00
23164;BME280;31429;42.674;23.350;2023-08-12T01:07:35;95304.59;;;17.35;100.00
23164;BME280;31429;42.674;23.350;2023-08-12T01:08:47;95306.78;;;17.42;100.00
23164;BME280;31429;42.674;23.350;2023-08-12T01:09:50;95308.00;;;17.35;100.00
23164;BME280;31429;42.674;23.350;2023-08-12T01:13:22;95308.44;;;17.28;100.00
23164;BME280;31429;42.674;23.350;2023-08-12T01:15:48;95311.69;;;17.15;100.00
23164;BME280;31429;42.674;23.350;2023-08-12T01:16:58;95303.84;;;17.01;100.00
23164;BME280;31429;42.674;23.350;2023-08-12T01:18:02;95307.97;;;17.05;100.00
23164;BME280;31429;42.674;23.350;2023-08-12T01:19:10;95313.34;;;17.01;100.00
23164;BME280;31429;42.674;23.350;2023-08-12T01:20:11;95301.13;;;17.04;100.00
23164;BME280;31429;42.674;23.350;2023-08-12T01:21:17;95306.63;;;17.14;100.00
23164;BME280;31429;42.674;23.350;2023-08-12T01:22:26;95299.28;;;17.06;100.00
23164;BME280;31429;42.674;23.350;2023-08-12T01:24:43;95300.94;;;17.23;100.00
23164;BME280;31429;42.674;23.350;2023-08-12T01:25:44;95294.94;;;17.07;100.00
23164;BME280;31429;42.674;23.350;2023-08-12T01:26:47;95305.13;;;17.10;100.00
23164;BME280;31429;42.674;23.350;2023-08-12T01:27:50;95310.38;;;17.08;100.00
23164;BME280;31429;42.674;23.350;2023-08-12T01:28:51;95300.53;;;17.15;100.00
23164;BME280;31429;42.674;23.350;2023-08-12T01:29:52;95292.94;;;17.12;100.00
23164;BME280;31429;42.674;23.350;2023-08-12T01:30:58;95298.94;;;17.12;100.00
23164;BME280;31429;42.674;23.350;2023-08-12T01:32:13;95297.09;;;17.14;100.00
23164;BME280;31429;42.674;23.350;2023-08-12T01:33:21;95293.19;;;17.07;100.00
23164;BME280;31429;42.674;23.350;2023-08-12T01:34:33;95288.03;;;17.07;100.00
23164;BME280;31429;42.674;23.350;2023-08-12T01:45:06;95292.75;;;16.84;100.00
23164;BME280;31429;42.674;23.350;2023-08-12T01:46:07;95295.66;;;16.78;100.00
23164;BME280;31429;42.674;23.350;2023-08-12T01:47:09;95295.75;;;16.76;100.00
23164;BME280;31429;42.674;23.350;2023-08-12T01:48:10;95287.34;;;16.73;100.00
23164;BME280;31429;42.674;23.350;2023-08-12T01:49:14;95286.75;;;16.83;100.00
23164;BME280;31429;42.674;23.350;2023-08-12T01:50:15;95295.13;;;16.88;100.00
23164;BME280;31429;42.674;23.350;2023-08-12T01:51:19;95287.69;;;16.82;100.00
23164;BME280;31429;42.674;23.350;2023-08-12T01:52:23;95301.00;;;16.75;100.00
23164;BME280;31429;42.674;23.350;2023-08-12T01:53:24;95298.25;;;16.78;100.00
23164;BME280;31429;42.674;23.350;2023-08-12T01:54:27;95296.13;;;16.86;100.00
23164;BME280;31429;42.674;23.350;2023-08-12T01:55:33;95300.59;;;16.82;100.00
23164;BME280;31429;42.674;23.350;2023-08-12T01:56:34;95287.44;;;16.71;100.00
23164;BME280;31429;42.674;23.350;2023-08-12T01:57:38;95303.56;;;16.75;100.00
23164;BME280;31429;42.674;23.350;2023-08-12T01:58:41;95296.19;;;16.69;100.00
23164;BME280;31429;42.674;23.350;2023-08-12T01:59:45;95301.34;;;16.51;100.00
23164;BME280;31429;42.674;23.350;2023-08-12T02:00:51;95300.00;;;16.44;100.00
23164;BME280;31429;42.674;23.350;2023-08-12T02:01:58;95291.25;;;16.47;100.00
23164;BME280;31429;42.674;23.350;2023-08-12T02:03:00;95290.50;;;16.45;100.00
23164;BME280;31429;42.674;23.350;2023-08-12T02:04:01;95298.66;;;16.37;100.00
23164;BME280;31429;42.674;23.350;2023-08-12T02:05:05;95294.25;;;16.39;100.00
23164;BME280;31429;42.674;23.350;2023-08-12T02:07:24;95299.31;;;16.41;100.00
23164;BME280;31429;42.674;23.350;2023-08-12T02:12:01;95293.63;;;16.51;100.00
23164;BME280;31429;42.674;23.350;2023-08-12T02:13:05;95295.97;;;16.56;100.00
23164;BME280;31429;42.674;23.350;2023-08-12T02:14:09;95293.75;;;16.65;100.00
23164;BME280;31429;42.674;23.350;2023-08-12T02:15:12;95292.84;;;16.49;100.00
23164;BME280;31429;42.674;23.350;2023-08-12T02:16:14;95291.72;;;16.55;100.00
23164;BME280;31429;42.674;23.350;2023-08-12T02:17:20;95303.91;;;16.69;100.00
23164;BME280;31429;42.674;23.350;2023-08-12T02:18:24;95298.06;;;16.65;100.00
23164;BME280;31429;42.674;23.350;2023-08-12T02:24:08;95295.66;;;16.62;100.00
23164;BME280;31429;42.674;23.350;2023-08-12T02:25:09;95295.88;;;16.57;100.00
23164;BME280;31429;42.674;23.350;2023-08-12T02:26:10;95286.22;;;16.61;100.00
23164;BME280;31429;42.674;23.350;2023-08-12T02:41:18;95306.16;;;16.42;100.00
23164;BME280;31429;42.674;23.350;2023-08-12T02:42:19;95307.47;;;16.49;100.00
23164;BME280;31429;42.674;23.350;2023-08-12T02:43:24;95299.47;;;16.38;100.00
23164;BME280;31429;42.674;23.350;2023-08-12T02:46:50;95295.66;;;16.45;100.00
23164;BME280;31429;42.674;23.350;2023-08-12T02:47:51;95294.09;;;16.42;100.00
23164;BME280;31429;42.674;23.350;2023-08-12T02:48:52;95305.84;;;16.48;100.00
23164;BME280;31429;42.674;23.350;2023-08-12T02:49:53;95308.41;;;16.48;100.00
23164;BME280;31429;42.674;23.350;2023-08-12T02:50:54;95304.47;;;16.41;100.00
23164;BME280;31429;42.674;23.350;2023-08-12T02:51:55;95301.38;;;16.34;100.00
23164;BME280;31429;42.674;23.350;2023-08-12T02:53:04;95314.28;;;16.34;100.00
23164;BME280;31429;42.674;23.350;2023-08-12T02:54:05;95299.56;;;16.36;100.00
23164;BME280;31429;42.674;23.350;2023-08-12T02:55:07;95310.63;;;16.38;100.00
23164;BME280;31429;42.674;23.350;2023-08-12T02:56:10;95298.19;;;16.29;100.00
23164;BME280;31429;42.674;23.350;2023-08-12T02:57:12;95310.28;;;16.29;100.00
23164;BME280;31429;42.674;23.350;2023-08-12T02:58:13;95314.81;;;16.24;100.00
23164;BME280;31429;42.674;23.350;2023-08-12T02:59:16;95309.00;;;16.20;100.00
23164;BME280;31429;42.674;23.350;2023-08-12T03:22:57;95313.34;;;16.02;100.00
23164;BME280;31429;42.674;23.350;2023-08-12T03:24:00;95311.97;;;15.95;100.00
23164;BME280;31429;42.674;23.350;2023-08-12T03:25:01;95320.09;;;15.88;100.00
23164;BME280;31429;42.674;23.350;2023-08-12T03:26:04;95319.34;;;15.86;100.00
23164;BME280;31429;42.674;23.350;2023-08-12T03:27:07;95309.53;;;15.92;100.00
23164;BME280;31429;42.674;23.350;2023-08-12T03:28:08;95310.59;;;16.05;100.00
23164;BME280;31429;42.674;23.350;2023-08-12T03:29:12;95313.47;;;16.17;100.00
23164;BME280;31429;42.674;23.350;2023-08-12T03:30:13;95320.97;;;16.04;100.00
23164;BME280;31429;42.674;23.350;2023-08-12T03:31:19;95318.19;;;16.08;100.00
23164;BME280;31429;42.674;23.350;2023-08-12T03:32:24;95327.72;;;16.06;100.00
23164;BME280;31429;42.674;23.350;2023-08-12T03:33:28;95322.50;;;16.08;100.00
23164;BME280;31429;42.674;23.350;2023-08-12T03:36:55;95320.47;;;15.97;100.00
23164;BME280;31429;42.674;23.350;2023-08-12T03:38:00;95325.94;;;15.91;100.00
23164;BME280;31429;42.674;23.350;2023-08-12T03:39:03;95318.69;;;15.81;100.00
23164;BME280;31429;42.674;23.350;2023-08-12T03:40:07;95328.34;;;15.77;100.00
23164;BME280;31429;42.674;23.350;2023-08-12T03:41:08;95332.56;;;15.78;100.00
23164;BME280;31429;42.674;23.350;2023-08-12T03:44:35;95330.31;;;15.72;100.00
23164;BME280;31429;42.674;23.350;2023-08-12T03:55:09;95315.91;;;15.68;100.00
23164;BME280;31429;42.674;23.350;2023-08-12T03:56:14;95313.31;;;15.68;100.00
23164;BME280;31429;42.674;23.350;2023-08-12T03:57:18;95323.63;;;15.68;100.00
23164;BME280;31429;42.674;23.350;2023-08-12T04:03:05;95328.56;;;16.07;100.00
23164;BME280;31429;42.674;23.350;2023-08-12T04:04:06;95319.63;;;15.97;100.00
23164;BME280;31429;42.674;23.350;2023-08-12T04:05:07;95318.09;;;15.93;100.00
23164;BME280;31429;42.674;23.350;2023-08-12T04:06:08;95313.72;;;15.95;100.00
23164;BME280;31429;42.674;23.350;2023-08-12T04:07:09;95307.78;;;15.93;100.00
23164;BME280;31429;42.674;23.350;2023-08-12T04:08:13;95314.94;;;15.88;100.00
23164;BME280;31429;42.674;23.350;2023-08-12T04:09:14;95322.06;;;15.83;100.00
23164;BME280;31429;42.674;23.350;2023-08-12T04:12:47;95318.09;;;15.76;100.00
23164;BME280;31429;42.674;23.350;2023-08-12T04:13:48;95322.97;;;15.82;100.00
23164;BME280;31429;42.674;23.350;2023-08-12T04:17:11;95310.16;;;15.80;100.00
23164;BME280;31429;42.674;23.350;2023-08-12T04:18:12;95323.84;;;15.81;100.00
23164;BME280;31429;42.674;23.350;2023-08-12T04:21:37;95324.56;;;15.84;100.00
23164;BME280;31429;42.674;23.350;2023-08-12T04:22:47;95319.53;;;15.98;100.00
23164;BME280;31429;42.674;23.350;2023-08-12T04:23:51;95314.31;;;16.00;100.00
23164;BME280;31429;42.674;23.350;2023-08-12T04:24:52;95315.47;;;15.94;100.00
23164;BME280;31429;42.674;23.350;2023-08-12T04:25:53;95317.25;;;15.92;100.00
23164;BME280;31429;42.674;23.350;2023-08-12T04:26:56;95319.69;;;16.13;100.00
23164;BME280;31429;42.674;23.350;2023-08-12T04:27:59;95320.44;;;16.32;100.00
23164;BME280;31429;42.674;23.350;2023-08-12T04:29:00;95324.53;;;16.36;100.00
23164;BME280;31429;42.674;23.350;2023-08-12T04:30:04;95324.78;;;16.31;100.00
23164;BME280;31429;42.674;23.350;2023-08-12T04:31:09;95333.22;;;16.18;100.00
23164;BME280;31429;42.674;23.350;2023-08-12T04:32:12;95320.22;;;16.19;100.00
23164;BME280;31429;42.674;23.350;2023-08-12T04:33:16;95311.94;;;16.30;100.00
23164;BME280;31429;42.674;23.350;2023-08-12T04:34:17;95314.28;;;16.34;100.00
23164;BME280;31429;42.674;23.350;2023-08-12T04:35:24;95314.19;;;16.36;100.00
23164;BME280;31429;42.674;23.350;2023-08-12T04:36:25;95314.28;;;16.34;100.00
23164;BME280;31429;42.674;23.350;2023-08-12T04:37:31;95322.41;;;16.27;100.00
23164;BME280;31429;42.674;23.350;2023-08-12T04:50:21;95326.38;;;17.31;100.00
23164;BME280;31429;42.674;23.350;2023-08-12T04:51:25;95328.38;;;17.57;100.00
23164;BME280;31429;42.674;23.350;2023-08-12T04:52:34;95334.94;;;17.47;100.00
23164;BME280;31429;42.674;23.350;2023-08-12T04:53:40;95326.72;;;17.24;100.00
23164;BME280;31429;42.674;23.350;2023-08-12T04:54:45;95323.53;;;17.35;100.00
23164;BME280;31429;42.674;23.350;2023-08-12T04:55:50;95318.53;;;17.32;100.00
23164;BME280;31429;42.674;23.350;2023-08-12T04:56:56;95323.00;;;17.29;100.00
23164;BME280;31429;42.674;23.350;2023-08-12T04:57:57;95327.94;;;17.49;100.00
23164;BME280;31429;42.674;23.350;2023-08-12T04:59:00;95323.59;;;17.49;100.00
23164;BME280;31429;42.674;23.350;2023-08-12T05:01:19;95333.25;;;17.46;100.00
23164;BME280;31429;42.674;23.350;2023-08-12T05:02:22;95323.88;;;17.45;100.00
23164;BME280;31429;42.674;23.350;2023-08-12T05:03:29;95331.97;;;17.54;100.00
23164;BME280;31429;42.674;23.350;2023-08-12T05:04:35;95329.75;;;17.78;100.00
23164;BME280;31429;42.674;23.350;2023-08-12T05:05:39;95335.94;;;18.05;100.00
23164;BME280;31429;42.674;23.350;2023-08-12T05:06:40;95338.00;;;18.14;100.00
23164;BME280;31429;42.674;23.350;2023-08-12T05:07:50;95329.53;;;17.97;100.00
23164;BME280;31429;42.674;23.350;2023-08-12T05:08:52;95340.16;;;17.92;100.00
23164;BME280;31429;42.674;23.350;2023-08-12T05:12:18;95334.91;;;18.37;100.00
23164;BME280;31429;42.674;23.350;2023-08-12T05:13:20;95347.06;;;18.51;100.00
23164;BME280;31429;42.674;23.350;2023-08-12T05:26:04;95348.88;;;18.05;100.00
23164;BME280;31429;42.674;23.350;2023-08-12T05:27:10;95353.25;;;18.49;100.00
23164;BME280;31429;42.674;23.350;2023-08-12T05:28:11;95369.34;;;18.54;100.00
23164;BME280;31429;42.674;23.350;2023-08-12T05:29:18;95353.88;;;18.38;100.00
23164;BME280;31429;42.674;23.350;2023-08-12T05:30:19;95348.13;;;18.33;100.00
23164;BME280;31429;42.674;23.350;2023-08-12T05:31:31;95352.13;;;18.38;100.00
23164;BME280;31429;42.674;23.350;2023-08-12T05:32:42;95352.91;;;18.39;100.00
23164;BME280;31429;42.674;23.350;2023-08-12T05:39:42;95372.72;;;18.40;100.00
23164;BME280;31429;42.674;23.350;2023-08-12T05:40:45;95365.03;;;18.24;100.00
23164;BME280;31429;42.674;23.350;2023-08-12T05:43:03;95368.94;;;18.46;100.00
23164;BME280;31429;42.674;23.350;2023-08-12T05:44:05;95382.00;;;18.44;100.00
23164;BME280;31429;42.674;23.350;2023-08-12T05:45:09;95353.81;;;18.54;100.00
23164;BME280;31429;42.674;23.350;2023-08-12T05:47:30;95359.66;;;18.57;100.00
23164;BME280;31429;42.674;23.350;2023-08-12T05:48:34;95360.97;;;18.50;100.00
23164;BME280;31429;42.674;23.350;2023-08-12T05:49:35;95359.56;;;18.59;100.00
23164;BME280;31429;42.674;23.350;2023-08-12T05:53:08;95357.78;;;18.59;100.00
23164;BME280;31429;42.674;23.350;2023-08-12T05:54:13;95363.44;;;18.66;100.00
23164;BME280;31429;42.674;23.350;2023-08-12T05:55:14;95369.78;;;18.90;100.00
23164;BME280;31429;42.674;23.350;2023-08-12T06:02:15;95366.34;;;18.89;100.00
23164;BME280;31429;42.674;23.350;2023-08-12T06:05:44;95355.59;;;19.10;100.00
23164;BME280;31429;42.674;23.350;2023-08-12T06:06:47;95355.84;;;19.19;100.00
23164;BME280;31429;42.674;23.350;2023-08-12T06:09:05;95352.34;;;19.06;100.00
23164;BME280;31429;42.674;23.350;2023-08-12T06:10:07;95352.44;;;19.05;100.00
23164;BME280;31429;42.674;23.350;2023-08-12T06:12:17;95353.06;;;19.22;100.00
23164;BME280;31429;42.674;23.350;2023-08-12T06:29:58;95350.25;;;19.54;100.00
23164;BME280;31429;42.674;23.350;2023-08-12T06:38:32;95339.97;;;20.83;100.00
23164;BME280;31429;42.674;23.350;2023-08-12T06:39:33;95332.13;;;21.20;100.00
23164;BME280;31429;42.674;23.350;2023-08-12T06:41:49;95336.00;;;21.88;100.00
23164;BME280;31429;42.674;23.350;2023-08-12T07:49:17;95316.50;;;23.40;79.04
23164;BME280;31429;42.674;23.350;2023-08-12T07:58:45;95296.88;;;22.46;84.01
23164;BME280;31429;42.674;23.350;2023-08-12T07:59:48;95298.38;;;22.83;83.44
23164;BME280;31429;42.674;23.350;2023-08-12T08:13:44;95287.75;;;23.52;80.22
23164;BME280;31429;42.674;23.350;2023-08-12T08:30:36;95290.25;;;23.42;80.79
23164;BME280;31429;42.674;23.350;2023-08-12T08:32:55;95289.19;;;23.33;74.92
23164;BME280;31429;42.674;23.350;2023-08-12T08:33:59;95286.13;;;23.39;75.43
23164;BME280;31429;42.674;23.350;2023-08-12T08:35:02;95290.00;;;23.34;76.76
23164;BME280;31429;42.674;23.350;2023-08-12T08:36:03;95288.94;;;23.48;81.89
23164;BME280;31429;42.674;23.350;2023-08-12T08:37:07;95292.56;;;23.67;83.19
23164;BME280;31429;42.674;23.350;2023-08-12T08:38:08;95285.25;;;23.50;73.83
23164;BME280;31429;42.674;23.350;2023-08-12T08:48:39;95269.03;;;24.51;69.87
23164;BME280;31429;42.674;23.350;2023-08-12T09:13:50;95250.34;;;25.17;88.45
23164;BME280;31429;42.674;23.350;2023-08-12T19:09:37;95186.44;;;22.03;89.71
23164;BME280;31429;42.674;23.350;2023-08-12T19:42:12;95195.47;;;21.04;95.90
23164;BME280;31429;42.674;23.350;2023-08-12T19:44:28;95191.38;;;21.25;98.16
23164;BME280;31429;42.674;23.350;2023-08-12T19:45:32;95191.41;;;21.12;95.24
23164;BME280;31429;42.674;23.350;2023-08-12T19:46:40;95193.06;;;21.37;96.00
23164;BME280;31429;42.674;23.350;2023-08-12T20:01:43;95188.88;;;21.24;95.71
23164;BME280;31429;42.674;23.350;2023-08-12T20:02:46;95190.41;;;21.02;96.68
23164;BME280;31429;42.674;23.350;2023-08-12T20:03:49;95195.41;;;20.93;97.58
23164;BME280;31429;42.674;23.350;2023-08-12T20:04:53;95196.13;;;21.07;98.66
23164;BME280;31429;42.674;23.350;2023-08-12T20:19:50;95202.38;;;20.92;96.71
23164;BME280;31429;42.674;23.350;2023-08-12T20:38:47;95212.00;;;20.67;100.00
23164;BME280;31429;42.674;23.350;2023-08-12T20:39:49;95206.28;;;20.74;100.00
23164;BME280;31429;42.674;23.350;2023-08-12T20:58:10;95202.16;;;20.46;100.00
23164;BME280;31429;42.674;23.350;2023-08-12T20:59:10;95199.78;;;20.43;100.00
23164;BME280;31429;42.674;23.350;2023-08-12T21:03:53;95201.16;;;20.49;100.00
23164;BME280;31429;42.674;23.350;2023-08-12T21:06:04;95198.81;;;20.70;100.00
23164;BME280;31429;42.674;23.350;2023-08-12T21:13:00;95211.09;;;20.68;100.00
23164;BME280;31429;42.674;23.350;2023-08-12T21:18:06;95214.22;;;20.60;100.00
23164;BME280;31429;42.674;23.350;2023-08-12T21:27:22;95220.13;;;20.49;100.00
23164;BME280;31429;42.674;23.350;2023-08-12T21:28:27;95217.03;;;20.44;100.00
23164;BME280;31429;42.674;23.350;2023-08-12T21:29:33;95221.19;;;20.59;100.00
23164;BME280;31429;42.674;23.350;2023-08-12T21:35:13;95222.19;;;20.70;100.00
23164;BME280;31429;42.674;23.350;2023-08-12T21:39:47;95222.53;;;20.65;100.00
23164;BME280;31429;42.674;23.350;2023-08-12T21:40:51;95217.41;;;20.63;100.00
23164;BME280;31429;42.674;23.350;2023-08-12T21:41:54;95223.78;;;20.59;100.00
23164;BME280;31429;42.674;23.350;2023-08-12T21:44:09;95217.75;;;20.72;100.00
23164;BME280;31429;42.674;23.350;2023-08-12T21:47:35;95218.66;;;20.71;100.00
23164;BME280;31429;42.674;23.350;2023-08-12T21:52:11;95213.41;;;21.67;100.00
23164;BME280;31429;42.674;23.350;2023-08-12T21:54:22;95218.03;;;21.16;100.00
23164;BME280;31429;42.674;23.350;2023-08-12T21:55:25;95220.41;;;21.06;100.00
23164;BME280;31429;42.674;23.350;2023-08-12T21:56:43;95217.91;;;20.81;100.00
23164;BME280;31429;42.674;23.350;2023-08-12T21:57:44;95225.41;;;20.86;100.00
23164;BME280;31429;42.674;23.350;2023-08-12T21:58:45;95215.84;;;20.74;100.00
23164;BME280;31429;42.674;23.350;2023-08-12T21:59:53;95218.75;;;20.69;100.00
23164;BME280;31429;42.674;23.350;2023-08-12T22:01:02;95220.84;;;20.64;100.00
23164;BME280;31429;42.674;23.350;2023-08-12T22:02:03;95216.59;;;20.63;100.00
23164;BME280;31429;42.674;23.350;2023-08-12T22:03:17;95216.28;;;20.68;100.00
23164;BME280;31429;42.674;23.350;2023-08-12T22:05:26;95220.75;;;20.66;100.00
23164;BME280;31429;42.674;23.350;2023-08-12T22:27:48;95212.75;;;20.18;100.00
23164;BME280;31429;42.674;23.350;2023-08-12T22:28:51;95207.25;;;20.10;100.00
23164;BME280;31429;42.674;23.350;2023-08-12T22:48:52;95199.56;;;19.96;100.00
23164;BME280;31429;42.674;23.350;2023-08-12T22:49:53;95203.72;;;19.98;100.00
23164;BME280;31429;42.674;23.350;2023-08-12T22:51:01;95210.47;;;19.88;100.00
23164;BME280;31429;42.674;23.350;2023-08-12T22:52:04;95207.75;;;19.90;100.00
23164;BME280;31429;42.674;23.350;2023-08-12T22:53:07;95201.53;;;19.80;100.00
23164;BME280;31429;42.674;23.350;2023-08-12T22:54:08;95207.44;;;19.82;100.00
23164;BME280;31429;42.674;23.350;2023-08-12T22:55:11;95204.53;;;19.74;100.00
23164;BME280;31429;42.674;23.350;2023-08-12T22:56:15;95204.41;;;19.63;100.00
23164;BME280;31429;42.674;23.350;2023-08-12T22:57:18;95212.91;;;19.65;100.00
23164;BME280;31429;42.674;23.350;2023-08-12T22:58:23;95205.53;;;19.59;100.00
23164;BME280;31429;42.674;23.350;2023-08-12T22:59:24;95201.09;;;19.61;100.00
23164;BME280;31429;42.674;23.350;2023-08-12T23:00:26;95210.31;;;19.65;100.00
23164;BME280;31429;42.674;23.350;2023-08-12T23:01:30;95212.06;;;19.64;100.00
23164;BME280;31429;42.674;23.350;2023-08-12T23:02:31;95204.41;;;19.63;100.00
23164;BME280;31429;42.674;23.350;2023-08-12T23:03:32;95208.69;;;19.64;100.00
23164;BME280;31429;42.674;23.350;2023-08-12T23:04:36;95197.25;;;19.66;100.00
23164;BME280;31429;42.674;23.350;2023-08-12T23:05:40;95205.66;;;19.70;100.00
23164;BME280;31429;42.674;23.350;2023-08-12T23:06:42;95198.31;;;19.64;100.00
23164;BME280;31429;42.674;23.350;2023-08-12T23:07:43;95206.50;;;19.70;100.00
23164;BME280;31429;42.674;23.350;2023-08-12T23:08:46;95214.38;;;19.69;100.00
23164;BME280;31429;42.674;23.350;2023-08-12T23:09:47;95204.50;;;19.61;100.00
23164;BME280;31429;42.674;23.350;2023-08-12T23:13:24;95207.22;;;19.60;100.00
23164;BME280;31429;42.674;23.350;2023-08-12T23:14:24;95203.78;;;19.59;100.00
23164;BME280;31429;42.674;23.350;2023-08-12T23:15:29;95200.97;;;19.62;100.00
23164;BME280;31429;42.674;23.350;2023-08-12T23:16:30;95200.16;;;19.62;100.00
23164;BME280;31429;42.674;23.350;2023-08-12T23:17:36;95207.44;;;19.69;100.00
23164;BME280;31429;42.674;23.350;2023-08-12T23:19:49;95202.47;;;19.79;100.00
23164;BME280;31429;42.674;23.350;2023-08-12T23:20:55;95198.22;;;19.78;100.00
23164;BME280;31429;42.674;23.350;2023-08-12T23:21:59;95207.75;;;19.77;100.00
23164;BME280;31429;42.674;23.350;2023-08-12T23:24:19;95199.84;;;19.66;100.00
23164;BME280;31429;42.674;23.350;2023-08-12T23:25:27;95201.09;;;19.61;100.00
23164;BME280;31429;42.674;23.350;2023-08-12T23:26:28;95202.94;;;19.59;100.00
23164;BME280;31429;42.674;23.350;2023-08-12T23:27:32;95193.78;;;19.53;100.00
23164;BME280;31429;42.674;23.350;2023-08-12T23:28:33;95205.94;;;19.52;100.00
23164;BME280;31429;42.674;23.350;2023-08-12T23:30:45;95199.94;;;19.52;100.00
23164;BME280;31429;42.674;23.350;2023-08-12T23:31:46;95197.16;;;19.55;100.00
23164;BME280;31429;42.674;23.350;2023-08-12T23:32:51;95200.84;;;19.51;100.00
23164;BME280;31429;42.674;23.350;2023-08-12T23:33:55;95196.72;;;19.61;100.00
23164;BME280;31429;42.674;23.350;2023-08-12T23:35:03;95197.34;;;19.65;100.00
23164;BME280;31429;42.674;23.350;2023-08-12T23:36:05;95195.28;;;19.70;100.00
23164;BME280;31429;42.674;23.350;2023-08-12T23:37:06;95193.31;;;19.73;100.00
23164;BME280;31429;42.674;23.350;2023-08-12T23:38:09;95189.59;;;19.77;100.00
23164;BME280;31429;42.674;23.350;2023-08-12T23:39:10;95191.03;;;19.81;100.00
23164;BME280;31429;42.674;23.350;2023-08-12T23:40:14;95195.59;;;19.65;100.00
23164;BME280;31429;42.674;23.350;2023-08-12T23:41:20;95198.81;;;19.81;100.00
23164;BME280;31429;42.674;23.350;2023-08-12T23:42:26;95198.63;;;19.72;100.00
23164;BME280;31429;42.674;23.350;2023-08-12T23:43:27;95200.91;;;19.64;100.00
23164;BME280;31429;42.674;23.350;2023-08-12T23:44:30;95205.13;;;19.65;100.00
23164;BME280;31429;42.674;23.350;2023-08-12T23:45:33;95198.91;;;19.67;100.00
23164;BME280;31429;42.674;23.350;2023-08-12T23:46:43;95209.84;;;19.72;100.00
23164;BME280;31429;42.674;23.350;2023-08-12T23:47:45;95215.22;;;19.69;100.00
23164;BME280;31429;42.674;23.350;2023-08-12T23:48:52;95204.94;;;19.68;100.00
23164;BME280;31429;42.674;23.350;2023-08-12T23:49:56;95208.38;;;19.68;100.00
23164;BME280;31429;42.674;23.350;2023-08-12T23:51:01;95208.16;;;19.71;100.00
23164;BME280;31429;42.674;23.350;2023-08-12T23:52:12;95201.94;;;19.74;100.00
23164;BME280;31429;42.674;23.350;2023-08-12T23:53:15;95216.78;;;19.72;100.00
23164;BME280;31429;42.674;23.350;2023-08-12T23:54:20;95201.22;;;19.72;100.00
23164;BME280;31429;42.674;23.350;2023-08-12T23:55:21;95203.06;;;19.70;100.00